createdAt,value
2018-06-09T00:00:27.730Z,25.73
2018-06-09T00:02:56.203Z,25.71
2018-06-09T00:05:24.744Z,25.69
2018-06-09T00:07:53.610Z,25.60
2018-06-09T00:10:21.917Z,25.43
2018-06-09T00:12:50.534Z,25.36
2018-06-09T00:15:19.784Z,25.29
2018-06-09T00:17:48.395Z,25.26
2018-06-09T00:20:18.898Z,25.27
2018-06-09T00:22:47.392Z,25.28
2018-06-09T00:25:15.782Z,25.30
2018-06-09T00:27:44.288Z,25.26
2018-06-09T00:30:12.767Z,25.27
2018-06-09T00:32:41.132Z,25.28
2018-06-09T00:35:10.913Z,25.34
2018-06-09T00:37:39.435Z,25.36
2018-06-09T00:40:08.053Z,25.31
2018-06-09T00:42:36.504Z,25.31
2018-06-09T00:45:04.888Z,25.26
2018-06-09T00:47:33.280Z,25.25
2018-06-09T00:50:01.624Z,25.26
2018-06-09T00:52:29.993Z,25.21
2018-06-09T00:54:59.331Z,25.23
2018-06-09T00:57:32.806Z,25.23
2018-06-09T01:00:01.557Z,25.22
2018-06-09T01:02:30.497Z,25.20
2018-06-09T01:04:59.048Z,25.16
2018-06-09T01:07:36.916Z,25.12
2018-06-09T01:10:05.911Z,25.11
2018-06-09T01:12:34.288Z,25.06
2018-06-09T01:15:02.607Z,25.09
2018-06-09T01:17:44.758Z,25.08
2018-06-09T01:20:13.577Z,25.01
2018-06-09T01:22:41.863Z,25.02
2018-06-09T01:25:10.286Z,25.01
2018-06-09T01:27:38.714Z,24.98
2018-06-09T01:30:07.383Z,24.97
2018-06-09T01:32:35.907Z,24.96
2018-06-09T01:35:04.399Z,24.93
2018-06-09T01:37:32.896Z,24.93
2018-06-09T01:40:01.348Z,24.77
2018-06-09T01:42:30.516Z,24.75
2018-06-09T01:44:59.038Z,24.67
2018-06-09T01:53:26.267Z,24.65
2018-06-09T01:55:55.150Z,24.68
2018-06-09T01:58:28.658Z,24.61
2018-06-09T02:00:56.991Z,24.54
2018-06-09T02:03:25.321Z,24.53
2018-06-09T02:05:54.237Z,24.53
2018-06-09T02:08:22.946Z,24.53
2018-06-09T02:10:51.286Z,24.53
2018-06-09T02:13:19.655Z,24.50
2018-06-09T02:15:47.962Z,24.47
2018-06-09T02:18:16.851Z,24.42
2018-06-09T02:20:45.194Z,24.36
2018-06-09T02:23:13.603Z,24.43
2018-06-09T02:25:42.016Z,24.34
2018-06-09T02:28:10.347Z,24.29
2018-06-09T02:30:38.715Z,24.25
2018-06-09T02:33:07.169Z,24.28
2018-06-09T02:35:36.009Z,24.29
2018-06-09T02:38:04.580Z,24.29
2018-06-09T02:40:33.085Z,24.26
2018-06-09T02:43:01.758Z,24.20
2018-06-09T02:45:30.045Z,24.21
2018-06-09T02:48:03.584Z,24.16
2018-06-09T02:50:31.926Z,24.28
2018-06-09T02:53:00.632Z,24.27
2018-06-09T02:55:28.995Z,24.27
2018-06-09T02:57:57.503Z,24.23
2018-06-09T03:00:25.883Z,24.21
2018-06-09T03:02:54.297Z,24.07
2018-06-09T03:05:22.695Z,24.03
2018-06-09T03:10:44.537Z,23.98
2018-06-09T03:13:12.991Z,23.91
2018-06-09T03:15:42.301Z,23.83
2018-06-09T03:18:10.887Z,23.81
2018-06-09T03:20:39.284Z,23.73
2018-06-09T03:23:08.716Z,23.74
2018-06-09T03:25:37.160Z,23.74
2018-06-09T03:28:05.579Z,23.73
2018-06-09T03:30:33.961Z,23.78
2018-06-09T03:33:02.430Z,23.83
2018-06-09T03:35:31.226Z,23.84
2018-06-09T03:38:04.768Z,23.86
2018-06-09T03:40:33.152Z,23.86
2018-06-09T03:43:01.546Z,23.89
2018-06-09T03:45:29.933Z,23.90
2018-06-09T03:47:58.711Z,23.85
2018-06-09T03:50:27.103Z,23.79
2018-06-09T03:52:55.522Z,23.80
2018-06-09T03:55:23.873Z,23.81
2018-06-09T03:57:52.269Z,23.82
2018-06-09T04:00:20.657Z,23.71
2018-06-09T04:02:49.348Z,23.70
2018-06-09T04:05:17.697Z,23.73
2018-06-09T04:07:46.325Z,23.69
2018-06-09T04:10:14.646Z,23.58
2018-06-09T04:12:42.981Z,23.66
2018-06-09T04:15:11.529Z,23.72
2018-06-09T04:17:39.940Z,23.68
2018-06-09T04:20:08.265Z,23.74
2018-06-09T04:22:37.395Z,23.74
2018-06-09T04:25:05.734Z,23.81
2018-06-09T04:27:34.416Z,23.74
2018-06-09T04:30:03.636Z,23.76
2018-06-09T04:32:32.080Z,23.78
2018-06-09T04:35:00.436Z,23.82
2018-06-09T04:37:28.858Z,23.85
2018-06-09T04:39:57.237Z,23.88
2018-06-09T04:42:25.681Z,23.88
2018-06-09T04:44:54.724Z,23.84
2018-06-09T04:47:23.738Z,23.78
2018-06-09T04:49:52.538Z,23.77
2018-06-09T04:52:21.042Z,23.77
2018-06-09T04:54:49.668Z,23.76
2018-06-09T04:57:18.260Z,23.78
2018-06-09T04:59:46.890Z,23.69
2018-06-09T05:02:15.476Z,23.66
2018-06-09T05:04:44.041Z,23.71
2018-06-09T05:07:12.471Z,23.67
2018-06-09T05:09:41.079Z,23.68
2018-06-09T05:12:09.446Z,23.72
2018-06-09T05:14:37.828Z,23.75
2018-06-09T05:17:06.754Z,23.82
2018-06-09T05:19:35.162Z,23.80
2018-06-09T05:22:03.721Z,23.53
2018-06-09T05:24:32.080Z,23.32
2018-06-09T05:27:00.826Z,23.34
2018-06-09T05:29:29.216Z,23.27
2018-06-09T05:31:57.654Z,23.22
2018-06-09T05:34:25.988Z,23.26
2018-06-09T05:36:54.481Z,23.40
2018-06-09T05:39:23.027Z,23.55
2018-06-09T05:41:51.432Z,23.73
2018-06-09T05:44:19.886Z,23.88
2018-06-09T05:46:48.294Z,23.99
2018-06-09T05:49:17.712Z,24.05
2018-06-09T05:51:46.150Z,24.06
2018-06-09T05:54:14.706Z,24.06
2018-06-09T05:56:43.042Z,24.06
2018-06-09T05:59:12.422Z,23.91
2018-06-09T06:01:41.042Z,23.96
2018-06-09T06:04:10.633Z,24.06
2018-06-09T06:06:40.035Z,24.04
2018-06-09T06:09:08.880Z,24.06
2018-06-09T06:11:37.332Z,24.02
2018-06-09T06:14:05.806Z,24.01
2018-06-09T06:16:34.148Z,24.07
2018-06-09T06:19:02.578Z,24.17
2018-06-09T06:21:31.262Z,24.29
2018-06-09T06:24:00.656Z,24.39
2018-06-09T06:26:28.991Z,24.49
2018-06-09T06:28:57.838Z,24.50
2018-06-09T06:31:26.190Z,24.53
2018-06-09T06:33:54.576Z,24.51
2018-06-09T06:36:22.992Z,24.55
2018-06-09T06:38:51.382Z,24.64
2018-06-09T06:41:19.810Z,24.78
2018-06-09T06:43:48.286Z,24.94
2018-06-09T06:46:16.670Z,25.05
2018-06-09T06:48:45.090Z,25.12
2018-06-09T06:51:13.620Z,25.09
2018-06-09T06:53:42.034Z,25.12
2018-06-09T06:56:10.466Z,25.10
2018-06-09T06:58:43.915Z,25.09
2018-06-09T07:01:12.538Z,25.11
2018-06-09T07:03:41.026Z,25.12
2018-06-09T07:06:09.611Z,25.20
2018-06-09T07:08:38.019Z,25.30
2018-06-09T07:11:06.375Z,25.31
2018-06-09T07:13:35.537Z,25.35
2018-06-09T07:16:04.072Z,25.41
2018-06-09T07:18:32.442Z,25.46
2018-06-09T07:21:00.860Z,25.53
2018-06-09T07:23:29.214Z,25.56
2018-06-09T07:25:57.930Z,25.55
2018-06-09T07:28:31.398Z,25.58
2018-06-09T07:30:59.858Z,25.60
2018-06-09T07:33:28.220Z,25.57
2018-06-09T07:35:56.654Z,25.56
2018-06-09T07:38:25.066Z,25.61
2018-06-09T07:40:53.758Z,25.71
2018-06-09T07:43:22.193Z,25.79
2018-06-09T07:45:50.634Z,25.84
2018-06-09T07:48:19.968Z,25.88
2018-06-09T07:50:48.362Z,25.93
2018-06-09T07:53:16.748Z,25.94
2018-06-09T07:55:45.186Z,25.98
2018-06-09T07:58:18.691Z,26.08
2018-06-09T08:00:47.138Z,26.16
2018-06-09T08:03:15.584Z,26.22
2018-06-09T08:05:43.949Z,26.24
2018-06-09T08:08:12.586Z,26.30
2018-06-09T08:10:41.348Z,26.26
2018-06-09T08:13:09.850Z,25.98
2018-06-09T08:15:38.400Z,25.69
2018-06-09T08:18:07.030Z,25.51
2018-06-09T08:20:35.350Z,25.48
2018-06-09T08:23:04.092Z,25.49
2018-06-09T08:25:32.566Z,25.54
2018-06-09T08:28:14.612Z,25.61
2018-06-09T08:30:42.942Z,25.69
2018-06-09T08:33:11.613Z,25.77
2018-06-09T08:35:40.180Z,25.82
2018-06-09T08:41:01.550Z,26.06
2018-06-09T08:43:32.173Z,26.10
2018-06-09T08:46:01.674Z,26.13
2018-06-09T08:54:15.628Z,26.23
2018-06-09T08:56:44.454Z,26.29
2018-06-09T08:59:12.926Z,26.38
2018-06-09T09:01:41.770Z,26.46
2018-06-09T09:04:10.430Z,26.51
2018-06-09T09:06:38.802Z,26.59
2018-06-09T09:09:08.799Z,26.70
2018-06-09T09:11:37.383Z,26.81
2018-06-09T09:14:06.176Z,27.06
2018-06-09T09:16:34.769Z,27.22
2018-06-09T09:19:03.738Z,27.31
2018-06-09T09:21:32.230Z,27.49
2018-06-09T09:24:00.629Z,27.63
2018-06-09T09:26:29.026Z,27.75
2018-06-09T09:28:57.326Z,27.88
2018-06-09T09:31:25.680Z,28.05
2018-06-09T09:33:54.040Z,28.15
2018-06-09T09:36:22.434Z,28.23
2018-06-09T09:38:50.764Z,28.27
2018-06-09T09:41:19.484Z,28.32
2018-06-09T09:43:48.054Z,28.44
2018-06-09T09:46:16.741Z,28.49
2018-06-09T09:48:45.188Z,28.38
2018-06-09T09:51:13.735Z,28.39
2018-06-09T09:53:42.090Z,28.49
2018-06-09T09:56:11.064Z,28.58
2018-06-09T09:58:39.601Z,28.68
2018-06-09T10:01:08.188Z,28.83
2018-06-09T10:03:36.504Z,28.92
2018-06-09T10:06:05.058Z,29.01
2018-06-09T10:08:33.592Z,29.14
2018-06-09T10:11:01.988Z,29.24
2018-06-09T10:13:30.510Z,29.36
2018-06-09T10:15:59.596Z,29.43
2018-06-09T10:18:28.015Z,29.50
2018-06-09T10:20:56.444Z,29.63
2018-06-09T10:23:24.831Z,29.69
2018-06-09T10:25:54.473Z,29.78
2018-06-09T10:28:22.846Z,29.87
2018-06-09T10:30:51.354Z,29.96
2018-06-09T10:33:19.756Z,30.00
2018-06-09T10:35:48.544Z,29.92
2018-06-09T10:38:16.234Z,29.90
2018-06-09T10:40:43.851Z,29.96
2018-06-09T10:43:11.548Z,30.11
2018-06-09T10:45:39.154Z,30.18
2018-06-09T10:48:06.830Z,30.22
2018-06-09T10:50:34.726Z,30.14
2018-06-09T10:53:02.310Z,29.95
2018-06-09T10:55:29.905Z,29.87
2018-06-09T10:57:57.435Z,29.98
2018-06-09T11:00:25.000Z,30.12
2018-06-09T11:02:52.600Z,30.29
2018-06-09T11:05:20.302Z,30.47
2018-06-09T11:07:47.939Z,30.63
2018-06-09T11:10:15.618Z,30.76
2018-06-09T11:12:43.222Z,30.98
2018-06-09T11:15:11.014Z,31.15
2018-06-09T11:17:38.720Z,31.20
2018-06-09T11:20:06.570Z,31.29
2018-06-09T11:22:34.930Z,31.38
2018-06-09T11:25:02.524Z,31.47
2018-06-09T11:27:30.092Z,31.54
2018-06-09T11:29:57.895Z,31.57
2018-06-09T11:32:25.574Z,31.58
2018-06-09T11:34:53.206Z,31.72
2018-06-09T11:37:20.807Z,31.67
2018-06-09T11:39:48.402Z,31.69
2018-06-09T11:42:16.061Z,31.78
2018-06-09T11:44:43.630Z,31.68
2018-06-09T11:47:11.732Z,31.53
2018-06-09T11:49:39.458Z,31.41
2018-06-09T11:52:08.065Z,31.17
2018-06-09T11:54:36.023Z,30.97
2018-06-09T11:57:05.806Z,31.02
2018-06-09T11:59:33.476Z,30.93
2018-06-09T12:02:01.272Z,30.85
2018-06-09T12:04:29.653Z,30.98
2018-06-09T12:06:57.501Z,31.24
2018-06-09T12:09:25.235Z,31.61
2018-06-09T12:11:52.923Z,31.96
2018-06-09T12:14:20.727Z,32.17
2018-06-09T12:16:49.567Z,32.39
2018-06-09T12:19:17.485Z,32.50
2018-06-09T12:21:45.339Z,32.61
2018-06-09T12:24:13.099Z,32.52
2018-06-09T12:26:41.773Z,32.56
2018-06-09T12:29:09.572Z,32.64
2018-06-09T12:31:38.218Z,32.70
2018-06-09T12:34:06.025Z,32.62
2018-06-09T12:36:33.939Z,32.65
2018-06-09T12:39:01.787Z,32.79
2018-06-09T12:41:29.653Z,32.94
2018-06-09T12:43:57.631Z,33.09
2018-06-09T12:46:25.597Z,33.20
2018-06-09T12:48:53.280Z,33.23
2018-06-09T12:51:20.921Z,33.30
2018-06-09T12:53:48.479Z,33.15
2018-06-09T12:56:16.890Z,32.83
2018-06-09T12:58:45.356Z,32.81
2018-06-09T13:01:13.823Z,32.83
2018-06-09T13:03:42.487Z,32.95
2018-06-09T13:06:10.889Z,32.80
2018-06-09T13:08:39.544Z,32.52
2018-06-09T13:11:08.026Z,32.52
2018-06-09T13:13:36.493Z,32.64
2018-06-09T13:16:04.857Z,32.48
2018-06-09T13:18:33.165Z,32.57
2018-06-09T13:21:01.620Z,32.70
2018-06-09T13:23:30.229Z,32.68
2018-06-09T13:25:58.622Z,32.57
2018-06-09T13:28:26.987Z,32.52
2018-06-09T13:30:55.695Z,32.61
2018-06-09T13:33:24.084Z,32.66
2018-06-09T13:35:52.751Z,32.52
2018-06-09T13:38:26.098Z,32.43
2018-06-09T13:40:54.774Z,32.61
2018-06-09T13:43:23.061Z,32.74
2018-06-09T13:45:51.379Z,32.73
2018-06-09T13:48:19.737Z,32.82
2018-06-09T13:50:48.121Z,33.04
2018-06-09T13:53:16.511Z,33.16
2018-06-09T13:55:45.713Z,33.31
2018-06-09T13:58:14.173Z,33.37
2018-06-09T14:00:42.540Z,33.39
2018-06-09T14:03:11.047Z,33.46
2018-06-09T14:05:39.939Z,33.35
2018-06-09T14:08:08.923Z,32.97
2018-06-09T14:10:37.233Z,32.98
2018-06-09T14:13:05.561Z,33.14
2018-06-09T14:15:34.036Z,33.17
2018-06-09T14:18:02.629Z,33.28
2018-06-09T14:20:31.451Z,33.43
2018-06-09T14:22:59.035Z,33.49
2018-06-09T14:25:27.084Z,33.60
2018-06-09T14:27:54.676Z,33.72
2018-06-09T14:30:22.646Z,33.82
2018-06-09T14:32:50.254Z,33.88
2018-06-09T14:35:17.829Z,33.91
2018-06-09T14:37:45.433Z,33.81
2018-06-09T14:40:13.074Z,33.53
2018-06-09T14:42:40.696Z,33.30
2018-06-09T14:45:08.353Z,32.98
2018-06-09T14:47:35.957Z,32.75
2018-06-09T14:50:03.581Z,32.66
2018-06-09T14:52:31.199Z,32.66
2018-06-09T14:54:58.792Z,32.81
2018-06-09T14:57:26.423Z,32.99
2018-06-09T14:59:54.369Z,33.15
2018-06-09T15:02:22.226Z,33.31
2018-06-09T15:04:50.687Z,33.30
2018-06-09T15:07:18.330Z,33.21
2018-06-09T15:09:51.021Z,33.20
2018-06-09T15:12:18.625Z,32.99
2018-06-09T15:14:46.216Z,32.71
2018-06-09T15:17:13.873Z,32.45
2018-06-09T15:19:41.549Z,32.21
2018-06-09T15:22:09.166Z,32.07
2018-06-09T15:24:36.801Z,31.99
2018-06-09T15:27:04.421Z,31.95
2018-06-09T15:29:32.050Z,31.92
2018-06-09T15:31:59.610Z,31.86
2018-06-09T15:34:27.279Z,31.79
2018-06-09T15:36:54.837Z,31.75
2018-06-09T15:39:23.145Z,31.71
2018-06-09T15:41:50.789Z,31.67
2018-06-09T15:44:18.327Z,31.63
2018-06-09T15:46:46.114Z,31.56
2018-06-09T15:49:13.799Z,31.54
2018-06-09T15:51:41.471Z,31.55
2018-06-09T15:54:09.599Z,31.52
2018-06-09T15:56:37.257Z,31.50
2018-06-09T15:59:04.932Z,31.50
2018-06-09T16:01:32.795Z,31.46
2018-06-09T16:04:00.414Z,31.46
2018-06-09T16:06:28.037Z,31.46
2018-06-09T16:08:56.732Z,31.44
2018-06-09T16:11:24.503Z,31.40
2018-06-09T16:13:52.171Z,31.32
2018-06-09T16:16:19.884Z,31.18
2018-06-09T16:18:47.640Z,31.05
2018-06-09T16:21:15.319Z,31.08
2018-06-09T16:23:43.176Z,31.03
2018-06-09T16:26:10.789Z,30.96
2018-06-09T16:31:23.825Z,30.96
2018-06-09T16:33:51.449Z,30.83
2018-06-09T16:36:19.029Z,30.72
2018-06-09T16:38:47.289Z,30.66
2018-06-09T16:41:14.963Z,30.60
2018-06-09T16:43:42.978Z,30.47
2018-06-09T16:46:11.542Z,30.38
2018-06-09T16:49:02.625Z,30.29
2018-06-09T16:51:31.245Z,30.24
2018-06-09T16:53:59.649Z,30.22
2018-06-09T16:56:28.109Z,30.20
2018-06-09T17:02:11.979Z,30.11
2018-06-09T17:04:40.461Z,30.08
2018-06-09T17:07:08.828Z,30.05
2018-06-09T17:09:38.691Z,30.04
2018-06-09T17:12:07.513Z,30.00
2018-06-09T17:14:35.908Z,29.97
2018-06-09T17:17:04.561Z,29.90
2018-06-09T17:19:32.911Z,29.82
2018-06-09T17:22:01.392Z,29.79
2018-06-09T17:24:29.951Z,29.82
2018-06-09T17:26:58.339Z,29.72
2018-06-09T17:29:26.906Z,29.59
2018-06-09T17:31:55.260Z,29.51
2018-06-09T17:34:23.624Z,29.46
2018-06-09T17:36:52.062Z,29.36
2018-06-09T17:39:43.279Z,29.33
2018-06-09T17:42:11.998Z,29.28
2018-06-09T17:44:40.528Z,29.20
2018-06-09T17:47:09.444Z,29.15
2018-06-09T17:49:37.818Z,29.15
2018-06-09T17:52:06.638Z,29.11
2018-06-09T17:54:35.177Z,29.09
2018-06-09T17:57:03.694Z,29.06
2018-06-09T17:59:32.205Z,29.01
2018-06-09T18:02:00.722Z,28.95
2018-06-09T18:04:29.263Z,28.90
2018-06-09T18:06:57.925Z,28.94
2018-06-09T18:09:31.978Z,28.97
2018-06-09T18:12:00.649Z,28.90
2018-06-09T18:14:29.247Z,28.65
2018-06-09T18:16:58.352Z,28.28
2018-06-09T18:19:49.444Z,28.32
2018-06-09T18:22:18.014Z,28.28
2018-06-09T18:24:47.006Z,28.22
2018-06-09T18:27:15.467Z,27.91
2018-06-09T18:29:44.086Z,27.79
2018-06-09T18:32:12.705Z,27.55
2018-06-09T18:34:42.042Z,27.49
2018-06-09T18:37:11.202Z,27.24
2018-06-09T18:39:39.865Z,27.13
2018-06-09T18:42:08.585Z,27.02
2018-06-09T18:44:37.135Z,26.84
2018-06-09T18:47:05.742Z,26.63
2018-06-09T18:49:34.802Z,26.58
2018-06-09T18:52:03.207Z,26.53
2018-06-09T18:54:32.020Z,26.39
2018-06-09T18:57:01.728Z,26.21
2018-06-09T19:02:36.662Z,25.70
2018-06-09T19:05:07.823Z,25.43
2018-06-09T19:07:36.302Z,25.30
2018-06-09T19:10:04.724Z,25.29
2018-06-09T19:12:33.214Z,25.51
2018-06-09T19:15:02.040Z,25.64
2018-06-09T19:17:30.846Z,25.86
2018-06-09T19:20:05.003Z,25.98
2018-06-09T19:22:33.714Z,25.87
2018-06-09T19:25:02.649Z,25.65
2018-06-09T19:27:31.133Z,25.55
2018-06-09T19:29:59.750Z,25.45
2018-06-09T19:32:29.304Z,25.21
2018-06-09T19:34:59.168Z,25.02
2018-06-09T19:37:28.598Z,24.71
2018-06-09T19:40:06.480Z,24.62
2018-06-09T19:42:35.567Z,24.68
2018-06-09T19:45:04.228Z,24.59
2018-06-09T19:47:32.604Z,24.69
2018-06-09T19:50:19.809Z,24.85
2018-06-09T19:52:48.330Z,24.85
2018-06-09T19:55:16.847Z,24.69
2018-06-09T19:57:59.128Z,24.58
2018-06-09T20:00:28.121Z,24.36
2018-06-09T20:02:57.488Z,24.25
2018-06-09T20:05:26.254Z,24.27
2018-06-09T20:07:55.593Z,24.27
2018-06-09T20:10:24.132Z,24.31
2018-06-09T20:12:52.851Z,24.24
2018-06-09T20:15:21.182Z,24.14
2018-06-09T20:17:54.811Z,23.99
2018-06-09T20:20:23.474Z,23.88
2018-06-09T20:22:52.131Z,23.83
2018-06-09T20:25:20.438Z,23.86
2018-06-09T20:27:49.113Z,23.95
2018-06-09T20:30:17.774Z,24.06
2018-06-09T20:32:46.573Z,24.08
2018-06-09T20:35:15.036Z,24.14
2018-06-09T20:37:43.487Z,24.15
2018-06-09T20:40:12.567Z,24.21
2018-06-09T20:42:40.987Z,24.15
2018-06-09T20:45:09.317Z,23.97
2018-06-09T20:47:37.805Z,23.97
2018-06-09T20:50:06.209Z,23.92
2018-06-09T20:52:34.643Z,23.96
2018-06-09T20:55:03.101Z,23.99
2018-06-09T20:57:31.777Z,24.05
2018-06-09T21:02:57.815Z,24.07
2018-06-09T21:05:26.705Z,24.15
2018-06-09T21:08:13.839Z,24.14
2018-06-09T21:10:42.240Z,24.17
2018-06-09T21:13:10.851Z,24.23
2018-06-09T21:15:39.129Z,24.29
2018-06-09T21:18:07.579Z,24.23
2018-06-09T21:20:35.981Z,24.19
2018-06-09T21:23:04.664Z,24.21
2018-06-09T21:25:33.028Z,24.24
2018-06-09T21:28:20.401Z,24.29
2018-06-09T21:30:54.162Z,24.34
2018-06-09T21:33:33.662Z,24.31
2018-06-09T21:36:07.294Z,24.39
2018-06-09T21:39:11.226Z,24.54
2018-06-09T21:41:43.657Z,24.58
2018-06-09T21:45:17.785Z,24.55
2018-06-09T21:47:46.199Z,24.51
2018-06-09T21:50:14.643Z,24.46
2018-06-09T21:52:43.028Z,24.39
2018-06-09T21:55:11.393Z,24.35
2018-06-09T21:57:39.689Z,24.32
2018-06-09T22:00:08.484Z,24.32
2018-06-09T22:02:36.854Z,24.33
2018-06-09T22:05:05.356Z,24.26
2018-06-09T22:07:33.695Z,24.24
2018-06-09T22:10:15.876Z,24.28
2018-06-09T22:12:44.211Z,24.28
2018-06-09T22:15:12.580Z,24.29
2018-06-09T22:17:40.959Z,24.29
2018-06-09T22:20:09.451Z,24.28
2018-06-09T22:22:37.755Z,24.21
2018-06-09T22:25:06.723Z,24.18
2018-06-09T22:27:35.057Z,24.18
2018-06-09T22:30:12.816Z,24.13
2018-06-09T22:32:41.283Z,24.06
2018-06-09T22:35:09.657Z,24.05
2018-06-09T22:37:38.217Z,24.05
2018-06-09T22:40:06.597Z,24.03
2018-06-09T22:42:35.001Z,23.98
2018-06-09T22:45:03.378Z,23.94
2018-06-09T22:47:31.711Z,23.89
2018-06-09T22:50:09.567Z,23.82
2018-06-09T22:52:37.885Z,23.75
2018-06-09T22:55:06.271Z,23.70
2018-06-09T22:57:34.585Z,23.69
2018-06-09T23:00:16.745Z,23.66
2018-06-09T23:02:45.068Z,23.59
2018-06-09T23:05:13.364Z,23.54
2018-06-09T23:07:41.682Z,23.53
2018-06-09T23:10:10.026Z,23.54
2018-06-09T23:12:38.371Z,23.49
2018-06-09T23:15:06.755Z,23.46
2018-06-09T23:17:35.162Z,23.50
2018-06-09T23:20:12.993Z,23.58
2018-06-09T23:22:41.310Z,23.60
2018-06-09T23:25:09.724Z,23.58
2018-06-09T23:27:38.049Z,23.55
2018-06-09T23:30:07.040Z,23.53
2018-06-09T23:32:35.395Z,23.51
2018-06-09T23:35:04.011Z,23.50
2018-06-09T23:37:32.459Z,23.48
2018-06-09T23:40:00.903Z,23.43
2018-06-09T23:42:29.259Z,23.39
2018-06-09T23:44:57.561Z,23.40
2018-06-09T23:47:25.919Z,23.48
2018-06-09T23:49:54.265Z,23.54
2018-06-09T23:52:23.577Z,23.55
2018-06-09T23:54:52.637Z,23.56
2018-06-09T23:57:20.952Z,23.52
2018-06-09T23:59:49.841Z,23.48
